Time;durP1;ratioP1;P1;durP2;ratioP2;P2;SDS_P1;SDS_P2;PMS_P1;PMS_P2;Temp;Humidity;BMP_temperature;BMP_pressure;BME280_temperature;BME280_humidity;BME280_pressure;Samples;Min_cycle;Max_cycle;Signal;HPM_P1;HPM_P2
2021/12/14 00:02:02;;;;;;;11.40;9.93;;;;;;;3.81;100.00;99812.41;5072113;28;20751;-66
2021/12/14 00:04:35;;;;;;;10.90;9.83;;;;;;;3.80;100.00;99818.31;5072187;28;20203;-67
2021/12/14 00:07:05;;;;;;;10.37;9.57;;;;;;;3.78;100.00;99822.50;5071974;28;20204;-66
2021/12/14 00:09:35;;;;;;;10.30;9.33;;;;;;;3.79;100.00;99821.69;5071429;28;20200;-66
2021/12/14 00:12:20;;;;;;;10.00;9.20;;;;;;;3.80;100.00;99820.00;5071475;28;20195;-66
2021/12/14 00:15:03;;;;;;;9.90;8.90;;;;;;;3.78;100.00;99822.50;5071626;28;20227;-66
2021/12/14 00:17:35;;;;;;;10.43;9.47;;;;;;;3.60;100.00;99797.09;5070174;28;20196;-65
2021/12/14 00:20:13;;;;;;;10.50;9.43;;;;;;;3.74;100.00;99827.59;5071338;28;20196;-66
2021/12/14 00:25:24;;;;;;;9.83;8.90;;;;;;;3.74;100.00;99830.97;5071071;28;20295;-66
2021/12/14 00:27:51;;;;;;;9.10;8.30;;;;;;;3.72;100.00;99837.69;5071391;28;20672;-67
2021/12/14 00:30:18;;;;;;;7.87;7.13;;;;;;;3.70;100.00;99835.19;5071215;28;20196;-66
2021/12/14 00:32:46;;;;;;;8.30;7.70;;;;;;;3.62;100.00;99830.88;5068847;28;20200;-66
2021/12/14 00:35:14;;;;;;;8.73;7.93;;;;;;;3.71;100.00;99833.50;5070980;28;20198;-66
2021/12/14 00:37:45;;;;;;;8.40;7.80;;;;;;;3.68;100.00;99843.63;5070680;28;20694;-66
2021/12/14 00:40:16;;;;;;;8.40;7.77;;;;;;;3.64;100.00;99845.28;5070978;28;20196;-66
2021/12/14 00:42:43;;;;;;;7.83;7.10;;;;;;;3.63;100.00;99843.59;5070982;28;20199;-66
2021/12/14 00:45:11;;;;;;;7.97;7.33;;;;;;;3.60;100.00;99842.72;5071361;28;20232;-66
2021/12/14 00:47:38;;;;;;;7.20;6.73;;;;;;;3.57;100.00;99842.72;5070443;28;20203;-66
2021/12/14 00:50:06;;;;;;;10.43;8.63;;;;;;;3.57;100.00;99845.25;5070356;28;20412;-66
2021/12/14 00:52:34;;;;;;;9.70;8.20;;;;;;;3.57;100.00;99848.63;5071444;28;20200;-66
2021/12/14 00:55:02;;;;;;;9.23;7.97;;;;;;;3.57;100.00;99847.78;5071571;28;20214;-66
2021/12/14 00:57:29;;;;;;;7.57;6.83;;;;;;;3.55;100.00;99844.41;5071259;28;20196;-66
2021/12/14 00:59:56;;;;;;;7.60;7.00;;;;;;;3.51;100.00;99850.28;5070081;28;20295;-66
2021/12/14 01:02:25;;;;;;;7.37;6.37;;;;;;;3.49;100.00;99842.66;5071332;28;20206;-66
2021/12/14 01:04:57;;;;;;;8.07;7.27;;;;;;;3.48;100.00;99845.22;5071122;28;20206;-67
2021/12/14 01:07:27;;;;;;;8.20;7.50;;;;;;;3.49;100.00;99849.44;5071659;28;20279;-66
2021/12/14 01:10:02;;;;;;;7.37;6.67;;;;;;;3.35;100.00;99831.63;5070999;28;20210;-67
2021/12/14 01:12:39;;;;;;;7.43;6.80;;;;;;;3.43;100.00;99849.38;5071130;28;20195;-66
2021/12/14 01:15:24;;;;;;;7.40;6.80;;;;;;;3.44;100.00;99846.03;5071143;28;20286;-66
2021/12/14 01:18:01;;;;;;;7.50;6.40;;;;;;;3.41;100.00;99846.84;5071084;28;20196;-66
2021/12/14 01:20:36;;;;;;;5.27;4.87;;;;;;;3.36;100.00;99850.22;5071077;28;20192;-66
2021/12/14 01:23:14;;;;;;;6.87;6.27;;;;;;;3.35;100.00;99858.66;5071027;28;20286;-67
2021/12/14 01:25:47;;;;;;;7.10;6.37;;;;;;;3.31;100.00;99849.31;5071111;28;20216;-67
2021/12/14 01:28:21;;;;;;;7.53;6.97;;;;;;;3.23;100.00;99856.03;5067973;28;20203;-67
2021/12/14 01:31:00;;;;;;;6.80;6.20;;;;;;;3.21;100.00;99858.56;5070870;28;20203;-66
2021/12/14 01:33:28;;;;;;;6.30;5.90;;;;;;;3.20;100.00;99856.03;5071161;28;20253;-66
2021/12/14 01:35:56;;;;;;;6.93;6.43;;;;;;;3.12;100.00;99854.28;5070881;28;20197;-65
2021/12/14 01:38:35;;;;;;;7.40;6.77;;;;;;;3.09;100.00;99853.41;5070742;28;20196;-66
2021/12/14 01:41:07;;;;;;;7.03;6.53;;;;;;;3.04;100.00;99860.97;5070771;28;20207;-66
2021/12/14 01:43:39;;;;;;;6.30;5.80;;;;;;;3.05;100.00;99856.75;5071430;28;20200;-66
2021/12/14 01:46:12;;;;;;;6.83;6.20;;;;;;;3.01;100.00;99855.88;5074464;28;20219;-66
2021/12/14 01:48:41;;;;;;;6.77;6.07;;;;;;;3.03;100.00;99851.69;5074561;28;20196;-66
2021/12/14 01:51:11;;;;;;;6.63;6.03;;;;;;;3.04;100.00;99860.97;5074425;28;20199;-66
2021/12/14 01:53:39;;;;;;;6.03;5.53;;;;;;;3.04;100.00;99871.09;5074716;28;20583;-66
2021/12/14 01:56:15;;;;;;;6.27;5.83;;;;;;;3.04;100.00;99855.91;5074457;28;20199;-66
2021/12/14 01:58:47;;;;;;;5.87;5.43;;;;;;;2.97;100.00;99863.47;5074261;28;20203;-66
2021/12/14 02:01:19;;;;;;;5.77;5.33;;;;;;;2.95;100.00;99860.03;5074406;28;20282;-66
2021/12/14 02:03:50;;;;;;;5.60;5.27;;;;;;;2.93;100.00;99862.59;5074406;28;20235;-66
2021/12/14 02:06:21;;;;;;;5.73;5.27;;;;;;;2.93;100.00;99866.78;5074044;28;20706;-66
2021/12/14 02:08:55;;;;;;;6.33;5.83;;;;;;;2.88;100.00;99861.69;5074360;28;20204;-66
2021/12/14 02:11:25;;;;;;;6.73;6.13;;;;;;;2.84;100.00;99865.03;5074397;28;20199;-66
2021/12/14 02:13:55;;;;;;;6.00;5.60;;;;;;;2.81;100.00;99865.00;5073965;28;20200;-65
2021/12/14 02:16:22;;;;;;;5.73;5.43;;;;;;;2.70;100.00;99859.00;5073541;28;20200;-66
2021/12/14 02:18:53;;;;;;;7.63;5.67;;;;;;;2.79;100.00;99860.75;5073675;28;20678;-66
2021/12/14 02:21:22;;;;;;;7.40;5.43;;;;;;;2.75;100.00;99859.06;5072165;28;20694;-65
2021/12/14 02:23:52;;;;;;;6.33;5.83;;;;;;;2.71;100.00;99859.84;5073595;28;20222;-66
2021/12/14 02:26:22;;;;;;;5.73;5.23;;;;;;;2.72;100.00;99867.44;5072767;28;20218;-66
2021/12/14 02:28:50;;;;;;;6.00;5.60;;;;;;;2.69;100.00;99859.84;5073017;28;20204;-66
2021/12/14 02:31:20;;;;;;;4.93;4.50;;;;;;;2.69;100.00;99864.03;5072696;28;20200;-65
2021/12/14 02:33:49;;;;;;;5.17;4.77;;;;;;;2.72;100.00;99861.53;5073395;28;20218;-66
2021/12/14 02:36:25;;;;;;;6.07;5.40;;;;;;;2.71;100.00;99875.06;5073341;28;20345;-66
2021/12/14 02:39:05;;;;;;;5.47;5.07;;;;;;;2.65;100.00;99871.63;5072985;28;20198;-66
2021/12/14 02:41:32;;;;;;;4.67;4.37;;;;;;;2.61;100.00;99859.78;5071794;28;20199;-66
2021/12/14 02:44:00;;;;;;;5.03;4.73;;;;;;;2.63;100.00;99862.31;5072591;28;20200;-66
2021/12/14 02:46:32;;;;;;;6.50;6.00;;;;;;;2.63;100.00;99867.38;5071783;28;20220;-66
2021/12/14 02:49:02;;;;;;;5.10;4.67;;;;;;;2.63;100.00;99873.28;5072937;28;20247;-66
2021/12/14 02:51:33;;;;;;;4.53;4.33;;;;;;;2.64;100.00;99869.09;5072408;28;20200;-66
2021/12/14 02:54:03;;;;;;;5.03;4.63;;;;;;;2.59;100.00;99871.56;5072937;28;20207;-66
2021/12/14 02:56:34;;;;;;;4.83;4.53;;;;;;;2.56;100.00;99863.09;5072899;28;20197;-65
2021/12/14 02:59:07;;;;;;;5.00;4.70;;;;;;;2.56;100.00;99870.69;5073499;28;20694;-66
2021/12/14 03:01:36;;;;;;;4.50;4.23;;;;;;;2.51;100.00;99867.28;5073106;28;20659;-66
2021/12/14 03:04:06;;;;;;;4.70;4.30;;;;;;;2.49;100.00;99874.84;5073389;28;20200;-66
2021/12/14 03:06:44;;;;;;;4.30;3.93;;;;;;;2.49;100.00;99873.97;5072952;28;20214;-66
2021/12/14 03:09:30;;;;;;;5.07;4.77;;;;;;;2.49;100.00;99873.97;5070840;28;20207;-65
2021/12/14 03:11:58;;;;;;;4.00;3.80;;;;;;;2.43;100.00;99873.91;5072935;28;20207;-66
2021/12/14 03:14:25;;;;;;;5.63;5.23;;;;;;;2.45;100.00;99884.94;5073185;28;20549;-66
2021/12/14 03:16:53;;;;;;;4.13;3.93;;;;;;;2.44;100.00;99885.75;5068966;28;20690;-66
2021/12/14 03:19:20;;;;;;;4.97;4.60;;;;;;;2.45;100.00;99882.41;5072891;28;20206;-66
2021/12/14 03:21:49;;;;;;;4.83;4.53;;;;;;;2.45;100.00;99884.94;5072609;28;20210;-66
2021/12/14 03:24:18;;;;;;;4.13;3.83;;;;;;;2.42;100.00;99884.91;5072560;28;20204;-66
2021/12/14 03:26:48;;;;;;;8.80;4.83;;;;;;;2.40;100.00;99889.06;5072251;28;20715;-66
2021/12/14 03:29:18;;;;;;;5.13;4.40;;;;;;;2.35;100.00;99881.47;5072564;28;20202;-66
2021/12/14 03:31:47;;;;;;;6.70;4.53;;;;;;;2.34;100.00;99884.81;5072459;28;20582;-66
2021/12/14 03:34:19;;;;;;;4.30;3.90;;;;;;;2.34;100.00;99883.97;5072803;28;20627;-66
2021/12/14 03:36:51;;;;;;;3.97;3.77;;;;;;;2.34;100.00;99887.34;5072147;28;20196;-66
2021/12/14 03:39:21;;;;;;;3.93;3.63;;;;;;;2.29;100.00;99895.72;5072424;28;20203;-65
2021/12/14 03:41:52;;;;;;;3.13;3.03;;;;;;;2.29;100.00;99888.13;5072202;28;20210;-66
2021/12/14 03:44:23;;;;;;;3.33;3.13;;;;;;;2.26;100.00;99886.41;5066175;28;20242;-66
2021/12/14 03:46:53;;;;;;;3.90;3.70;;;;;;;2.19;100.00;99879.59;5072174;28;20220;-67
2021/12/14 03:49:22;;;;;;;4.10;3.83;;;;;;;2.22;100.00;99883.84;5072403;28;20203;-66
2021/12/14 03:51:51;;;;;;;4.83;4.07;;;;;;;2.20;100.00;99893.09;5071058;28;20296;-67
2021/12/14 03:54:21;;;;;;;4.43;4.00;;;;;;;2.14;100.00;99893.84;5061480;28;20207;-66
2021/12/14 03:56:49;;;;;;;11.77;5.63;;;;;;;2.13;100.00;99895.53;5072188;28;20207;-65
2021/12/14 03:59:16;;;;;;;7.13;4.20;;;;;;;2.10;100.00;99903.09;5072304;28;20557;-66
2021/12/14 04:01:46;;;;;;;4.27;3.90;;;;;;;2.08;100.00;99901.38;5072098;28;20207;-66
2021/12/14 04:04:19;;;;;;;3.70;3.50;;;;;;;2.10;100.00;99903.09;5071568;28;20579;-66
2021/12/14 04:06:50;;;;;;;3.53;3.23;;;;;;;2.04;100.00;99905.53;5070382;28;20734;-66
2021/12/14 04:09:20;;;;;;;4.10;3.47;;;;;;;2.05;100.00;99896.28;5072060;28;20664;-66
2021/12/14 04:11:48;;;;;;;3.90;3.70;;;;;;;2.07;100.00;99908.09;5071734;28;20210;-66
2021/12/14 04:14:15;;;;;;;3.63;3.43;;;;;;;2.05;100.00;99914.84;5071892;28;20644;-66
2021/12/14 04:16:46;;;;;;;3.77;3.33;;;;;;;2.05;100.00;99917.38;5072007;28;20557;-65
2021/12/14 04:19:20;;;;;;;3.93;3.73;;;;;;;2.03;100.00;99906.41;5071939;28;20204;-66
2021/12/14 04:21:47;;;;;;;4.23;2.97;;;;;;;2.02;100.00;99916.47;5071551;28;20199;-65
2021/12/14 04:24:19;;;;;;;3.17;3.03;;;;;;;2.03;100.00;99919.03;5070998;28;20203;-65
2021/12/14 04:26:48;;;;;;;3.03;2.90;;;;;;;2.07;100.00;99915.69;5071110;28;20227;-65
2021/12/14 04:29:15;;;;;;;3.43;3.13;;;;;;;2.06;100.00;99928.34;5071060;28;20622;-66
2021/12/14 04:31:45;;;;;;;3.57;3.37;;;;;;;2.10;100.00;99930.91;5071363;28;20211;-66
2021/12/14 04:34:17;;;;;;;3.07;2.87;;;;;;;2.05;100.00;99930.00;5071211;28;20564;-66
2021/12/14 04:36:46;;;;;;;3.80;3.50;;;;;;;2.01;100.00;99925.72;5071137;28;20203;-66
2021/12/14 04:39:33;;;;;;;2.80;2.70;;;;;;;2.01;100.00;99930.78;5071040;28;20705;-66
2021/12/14 04:53:33;;;;;;;2.97;2.60;;;;;;;1.92;100.00;99934.88;5068228;28;20202;-66
2021/12/14 04:56:01;;;;;;;3.43;3.23;;;;;;;1.93;100.00;99934.91;5058579;28;20686;-67
2021/12/14 04:58:32;;;;;;;3.50;3.13;;;;;;;1.89;100.00;99940.75;5071170;28;20960;-66
2021/12/14 05:01:02;;;;;;;3.67;3.37;;;;;;;1.89;100.00;99933.16;5071000;28;20208;-66
2021/12/14 05:03:33;;;;;;;3.97;3.73;;;;;;;1.86;100.00;99939.88;5071099;28;20553;-66
2021/12/14 05:06:13;;;;;;;3.20;3.00;;;;;;;1.87;100.00;99939.91;5070967;28;20283;-66
2021/12/14 05:11:26;;;;;;;3.80;3.43;;;;;;;1.81;100.00;99944.84;5071225;28;20206;-66
2021/12/14 05:14:00;;;;;;;3.53;3.23;;;;;;;1.81;100.00;99947.38;5071428;28;20200;-66
2021/12/14 05:16:30;;;;;;;3.70;3.50;;;;;;;1.82;100.00;99943.16;5071265;28;20192;-66
2021/12/14 05:18:59;;;;;;;3.20;3.00;;;;;;;1.82;100.00;99949.09;5074010;28;20668;-66
2021/12/14 05:21:29;;;;;;;3.60;3.30;;;;;;;1.89;100.00;99945.81;5075223;28;20206;-66
2021/12/14 05:23:57;;;;;;;2.90;2.80;;;;;;;1.90;100.00;99947.53;5069087;28;20283;-66
2021/12/14 05:26:24;;;;;;;3.27;3.03;;;;;;;1.91;100.00;99953.41;5075217;28;20222;-66
2021/12/14 05:28:51;;;;;;;3.63;3.43;;;;;;;1.91;100.00;99959.31;5075515;28;20207;-66
2021/12/14 05:31:19;;;;;;;3.67;3.47;;;;;;;1.83;100.00;99953.31;5075117;28;20735;-66
2021/12/14 05:33:46;;;;;;;3.60;3.40;;;;;;;1.89;100.00;99970.25;5074042;28;20568;-66
2021/12/14 05:36:17;;;;;;;3.93;3.73;;;;;;;1.90;100.00;99971.94;5074376;28;20210;-66
2021/12/14 05:38:55;;;;;;;3.50;3.30;;;;;;;1.90;100.00;99969.41;5074762;28;20578;-66
2021/12/14 05:44:11;;;;;;;2.80;2.60;;;;;;;1.93;100.00;99972.84;5074752;28;20234;-66
2021/12/14 05:46:40;;;;;;;3.40;3.20;;;;;;;1.89;100.00;99971.09;5074590;28;20242;-66
2021/12/14 05:49:11;;;;;;;2.93;2.83;;;;;;;1.89;100.00;99976.16;5074932;28;20572;-66
2021/12/14 05:51:38;;;;;;;2.73;2.63;;;;;;;1.88;100.00;99979.50;5068247;28;20204;-66
2021/12/14 05:54:06;;;;;;;5.37;4.87;;;;;;;1.72;100.00;99962.41;5074499;28;20210;-65
2021/12/14 05:56:34;;;;;;;8.00;6.80;;;;;;;1.85;100.00;99983.66;5074166;28;20279;-67
2021/12/14 05:59:03;;;;;;;7.27;6.27;;;;;;;1.87;100.00;99982.88;5074453;28;20203;-65
2021/12/14 06:01:33;;;;;;;6.43;6.00;;;;;;;1.84;100.00;99977.75;5074259;28;20197;-66
2021/12/14 06:04:03;;;;;;;5.27;4.97;;;;;;;1.85;100.00;99981.97;5074392;28;20196;-65
2021/12/14 06:06:33;;;;;;;4.20;4.00;;;;;;;1.84;100.00;99987.84;5074279;28;20595;-65
2021/12/14 06:09:06;;;;;;;3.67;3.47;;;;;;;1.86;100.00;99992.94;5074212;28;20200;-66
2021/12/14 06:11:34;;;;;;;4.57;4.27;;;;;;;1.87;100.00;99987.94;5073077;28;20214;-65
2021/12/14 06:14:01;;;;;;;3.70;3.50;;;;;;;1.87;100.00;99989.59;5074144;28;20208;-65
2021/12/14 06:16:31;;;;;;;4.60;3.60;;;;;;;1.84;100.00;99989.56;5074012;28;20203;-65
2021/12/14 06:19:16;;;;;;;4.63;4.33;;;;;;;1.83;100.00;99990.38;5073809;28;20204;-65
2021/12/14 06:21:44;;;;;;;4.17;3.97;;;;;;;1.76;100.00;99974.28;5073872;28;20207;-65
2021/12/14 06:24:11;;;;;;;3.93;3.73;;;;;;;1.81;100.00;99985.28;5073897;28;20659;-65
2021/12/14 06:26:41;;;;;;;4.10;3.73;;;;;;;1.84;100.00;99997.97;5072200;28;20227;-66
2021/12/14 06:29:12;;;;;;;3.90;3.70;;;;;;;1.87;100.00;99998.03;5073378;28;20200;-66
2021/12/14 06:31:41;;;;;;;3.47;3.27;;;;;;;1.94;100.00;99991.38;5073625;28;20210;-66
2021/12/14 06:34:21;;;;;;;4.23;4.03;;;;;;;1.93;100.00;99993.06;5073804;28;20295;-65
2021/12/14 06:37:40;;;;;;;3.77;3.57;;;;;;;1.84;100.00;99997.97;5073744;28;20453;-65
2021/12/14 06:40:17;;;;;;;4.57;3.80;;;;;;;1.87;100.00;100003.09;5072723;28;20192;-66
2021/12/14 06:42:49;;;;;;;3.60;3.40;;;;;;;1.79;100.00;99989.47;5074031;28;20516;-65
2021/12/14 06:45:20;;;;;;;3.70;3.50;;;;;;;1.85;100.00;100009.78;5073283;28;20219;-65
2021/12/14 06:47:49;;;;;;;3.43;3.23;;;;;;;1.85;100.00;100001.34;5073222;28;20212;-65
2021/12/14 06:50:22;;;;;;;3.77;3.57;;;;;;;1.88;100.00;100006.44;5072213;28;20196;-59
2021/12/14 06:52:56;;;;;;;3.80;3.60;;;;;;;1.87;100.00;100012.34;5069175;28;20204;-60
2021/12/14 06:55:27;;;;;;;4.40;4.20;;;;;;;1.83;100.00;100011.47;5064848;28;20207;-60
2021/12/14 06:58:05;;;;;;;4.23;3.93;;;;;;;1.84;100.00;100007.25;5069184;28;20614;-63
2021/12/14 07:00:32;;;;;;;4.43;4.13;;;;;;;1.89;100.00;100016.59;5068154;28;20196;-59
2021/12/14 07:02:59;;;;;;;4.97;4.57;;;;;;;1.92;100.00;100014.09;5068970;28;20710;-59
2021/12/14 07:05:28;;;;;;;7.53;6.93;;;;;;;1.93;100.00;100020.03;5068110;28;20207;-59
2021/12/14 07:07:57;;;;;;;5.23;4.93;;;;;;;1.86;100.00;100014.03;5068926;28;20228;-60
2021/12/14 07:10:24;;;;;;;5.53;5.23;;;;;;;1.80;100.00;100008.03;5072918;28;20211;-66
2021/12/14 07:12:51;;;;;;;7.00;6.43;;;;;;;1.83;100.00;100016.50;5073177;28;20215;-66
2021/12/14 07:15:21;;;;;;;7.47;6.87;;;;;;;1.84;100.00;100027.47;5073495;28;20261;-65
2021/12/14 07:17:54;;;;;;;6.70;6.20;;;;;;;1.79;100.00;100029.91;5070076;28;20704;-65
2021/12/14 07:20:30;;;;;;;7.23;6.60;;;;;;;1.82;100.00;100014.81;5065196;28;20623;-64
2021/12/14 07:23:01;;;;;;;7.63;6.37;;;;;;;1.85;100.00;100024.97;5072990;28;20200;-64
2021/12/14 07:25:30;;;;;;;11.77;8.10;;;;;;;1.82;100.00;100019.00;5072706;28;20282;-64
2021/12/14 07:27:58;;;;;;;9.33;7.80;;;;;;;1.84;100.00;100027.47;5072885;28;20222;-65
2021/12/14 07:30:31;;;;;;;9.23;8.30;;;;;;;1.86;100.00;100024.13;5072666;28;20199;-64
2021/12/14 07:33:05;;;;;;;8.43;7.70;;;;;;;1.83;100.00;100026.63;5072841;28;20211;-63
2021/12/14 07:35:50;;;;;;;8.60;7.83;;;;;;;1.80;100.00;100026.56;5072436;28;20250;-64
2021/12/14 07:38:26;;;;;;;8.27;7.40;;;;;;;1.80;100.00;100025.72;5053631;28;20550;-64
2021/12/14 07:40:56;;;;;;;9.80;8.90;;;;;;;1.82;100.00;100040.06;5072670;28;20576;-64
2021/12/14 07:43:26;;;;;;;8.43;7.70;;;;;;;1.82;100.00;100035.03;5072668;28;20663;-65
2021/12/14 07:45:56;;;;;;;8.80;8.00;;;;;;;1.70;100.00;100004.50;5072352;28;20223;-66
2021/12/14 07:48:40;;;;;;;10.00;9.00;;;;;;;1.83;100.00;100039.25;5057604;28;20216;-64
2021/12/14 07:51:08;;;;;;;10.33;9.40;;;;;;;1.83;100.00;100040.94;5069351;28;20208;-65
2021/12/14 07:53:40;;;;;;;9.87;8.37;;;;;;;1.88;100.00;100047.75;5072243;28;20206;-65
2021/12/14 07:56:07;;;;;;;8.60;7.90;;;;;;;1.81;100.00;100038.38;5072706;28;20204;-64
2021/12/14 07:58:37;;;;;;;13.37;10.37;;;;;;;1.90;100.00;100042.72;5072134;28;20203;-65
2021/12/14 08:01:06;;;;;;;10.13;8.63;;;;;;;1.86;100.00;100046.03;5072369;28;20590;-65
2021/12/14 08:03:34;;;;;;;15.57;12.57;;;;;;;1.86;100.00;100049.41;5072233;28;20204;-63
2021/12/14 08:06:04;;;;;;;10.47;8.77;;;;;;;1.82;100.00;100050.19;5072246;28;20192;-65
2021/12/14 08:08:45;;;;;;;9.83;7.90;;;;;;;1.83;100.00;100056.94;5072434;28;20227;-65
2021/12/14 08:14:03;;;;;;;10.47;8.70;;;;;;;1.84;100.00;100048.53;5065165;28;20208;-67
2021/12/14 08:16:40;;;;;;;8.80;8.07;;;;;;;1.68;100.00;100031.41;5072403;28;20196;-67
2021/12/14 08:19:07;;;;;;;8.37;7.67;;;;;;;1.85;100.00;100060.34;5072223;28;20211;-67
2021/12/14 08:21:34;;;;;;;7.17;6.47;;;;;;;1.84;100.00;100047.69;5072126;28;20204;-68
2021/12/14 08:24:06;;;;;;;13.23;10.43;;;;;;;1.83;100.00;100054.44;5071841;28;20212;-68
2021/12/14 08:26:37;;;;;;;5.47;4.97;;;;;;;1.82;100.00;100061.97;5072179;28;20645;-69
2021/12/14 08:29:12;;;;;;;5.73;5.23;;;;;;;1.83;100.00;100058.63;5071808;28;20223;-67
2021/12/14 08:31:42;;;;;;;5.27;4.97;;;;;;;1.87;100.00;100062.91;5072107;28;20210;-67
2021/12/14 08:34:11;;;;;;;7.13;6.50;;;;;;;1.81;100.00;100053.53;5071996;28;20586;-68
2021/12/14 08:36:41;;;;;;;8.20;6.40;;;;;;;1.87;100.00;100057.84;5072047;28;20203;-68
2021/12/14 08:39:15;;;;;;;7.17;6.47;;;;;;;1.83;100.00;100067.06;5071966;28;20204;-67
2021/12/14 08:41:50;;;;;;;7.10;6.50;;;;;;;1.88;100.00;100059.53;5071987;28;20283;-68
2021/12/14 08:44:21;;;;;;;10.43;8.67;;;;;;;1.91;100.00;100060.44;5071719;28;20267;-64
2021/12/14 08:46:51;;;;;;;6.37;5.93;;;;;;;1.96;100.00;100060.50;5072227;28;20239;-64
2021/12/14 08:49:21;;;;;;;5.73;5.30;;;;;;;1.94;100.00;100059.66;5071405;28;20223;-65
2021/12/14 08:51:50;;;;;;;6.10;5.60;;;;;;;1.87;100.00;100062.91;5071903;28;20729;-65
2021/12/14 08:54:22;;;;;;;6.37;5.80;;;;;;;1.90;100.00;100058.75;5071356;28;20196;-66
2021/12/14 08:56:52;;;;;;;7.43;6.13;;;;;;;1.90;100.00;100051.16;5071227;28;20203;-65
2021/12/14 08:59:19;;;;;;;7.37;5.73;;;;;;;1.92;100.00;100054.56;5071468;28;20656;-65
2021/12/14 09:01:48;;;;;;;5.63;5.23;;;;;;;1.93;100.00;100038.56;5071445;28;20207;-66
2021/12/14 09:04:19;;;;;;;7.97;7.33;;;;;;;1.95;100.00;100038.56;5071442;28;20200;-65
2021/12/14 09:06:49;;;;;;;9.03;7.03;;;;;;;1.99;100.00;100037.81;5071359;28;20206;-65
2021/12/14 09:09:22;;;;;;;6.13;5.73;;;;;;;1.98;100.00;100042.00;5071055;28;20215;-65
2021/12/14 09:11:56;;;;;;;5.97;5.30;;;;;;;1.99;100.00;100033.59;5071383;28;20200;-65
2021/12/14 09:14:23;;;;;;;6.87;6.23;;;;;;;2.01;100.00;100031.06;5071288;28;20200;-65
2021/12/14 09:16:57;;;;;;;9.60;8.90;;;;;;;2.02;100.00;100033.63;5071461;28;20212;-65
2021/12/14 09:19:27;;;;;;;8.80;8.00;;;;;;;1.97;100.00;100025.13;5071514;28;20200;-65
2021/12/14 09:21:58;;;;;;;8.00;7.50;;;;;;;1.98;100.00;100031.03;5071557;28;20223;-65
2021/12/14 09:24:29;;;;;;;8.63;7.40;;;;;;;1.99;100.00;100023.47;5071493;28;20207;-65
2021/12/14 09:26:59;;;;;;;14.80;11.50;;;;;;;2.00;100.00;100015.06;5071490;28;20212;-65
2021/12/14 09:29:29;;;;;;;9.10;8.13;;;;;;;2.00;100.00;100015.06;5071444;28;20602;-65
2021/12/14 09:32:00;;;;;;;8.13;7.57;;;;;;;2.03;100.00;100016.78;5071397;28;20663;-65
2021/12/14 09:34:30;;;;;;;7.97;7.37;;;;;;;2.02;100.00;100008.34;5071369;28;20212;-65
2021/12/14 09:36:59;;;;;;;7.73;7.13;;;;;;;2.03;100.00;100011.75;5071406;28;20214;-65
2021/12/14 09:39:30;;;;;;;12.17;10.83;;;;;;;2.06;100.00;100007.56;5071191;28;20209;-65
2021/12/14 09:41:59;;;;;;;13.30;10.70;;;;;;;2.06;100.00;99999.13;5051336;28;20204;-66
2021/12/14 09:44:29;;;;;;;11.17;10.13;;;;;;;2.08;100.00;100003.38;5051004;28;20220;-65
2021/12/14 09:47:00;;;;;;;8.30;7.60;;;;;;;2.07;100.00;100001.66;5051278;28;20209;-66
2021/12/14 09:49:27;;;;;;;8.30;7.50;;;;;;;2.13;100.00;100000.06;5051417;28;20715;-65
2021/12/14 09:52:00;;;;;;;8.43;6.47;;;;;;;2.13;100.00;99995.00;5051307;28;20204;-65
2021/12/14 09:54:30;;;;;;;16.93;12.10;;;;;;;2.13;100.00;99998.41;5051102;28;20208;-65
2021/12/14 09:57:02;;;;;;;10.37;9.10;;;;;;;2.22;100.00;99997.66;5051202;28;20218;-65
2021/12/14 09:59:55;;;;;;;8.67;7.27;;;;;;;2.21;100.00;99989.22;5051469;28;20204;-65
2021/12/14 10:02:26;;;;;;;8.13;7.53;;;;;;;2.27;100.00;99994.34;5062884;28;20200;-65
2021/12/14 10:04:57;;;;;;;9.27;8.47;;;;;;;2.27;100.00;99993.47;5071870;28;20208;-65
2021/12/14 10:07:25;;;;;;;15.97;12.07;;;;;;;2.27;100.00;99993.47;5074561;28;20200;-65
2021/12/14 10:09:57;;;;;;;12.40;11.20;;;;;;;2.23;100.00;99985.00;5074534;28;20207;-66
2021/12/14 10:12:49;;;;;;;8.47;7.63;;;;;;;2.23;100.00;99982.47;5074516;28;20203;-65
2021/12/14 10:15:22;;;;;;;13.17;11.50;;;;;;;2.27;100.00;99979.16;5074309;28;20603;-66
2021/12/14 10:17:51;;;;;;;11.60;10.40;;;;;;;2.31;100.00;99975.00;5074511;28;20258;-65
2021/12/14 10:20:20;;;;;;;8.73;8.03;;;;;;;2.34;100.00;99985.16;5074268;28;20687;-65
2021/12/14 10:22:51;;;;;;;6.93;6.43;;;;;;;2.28;100.00;99983.41;5074553;28;20210;-65
2021/12/14 10:25:22;;;;;;;10.53;9.50;;;;;;;2.18;100.00;99947.84;5074254;28;20202;-66
2021/12/14 10:27:50;;;;;;;8.03;7.17;;;;;;;2.39;100.00;99978.47;5074201;28;20216;-65
2021/12/14 10:30:23;;;;;;;7.27;6.27;;;;;;;2.43;100.00;99977.66;5074293;28;20638;-65
2021/12/14 10:32:51;;;;;;;8.27;7.53;;;;;;;2.39;100.00;99963.31;5074156;28;20200;-65
2021/12/14 10:35:23;;;;;;;8.03;7.30;;;;;;;2.48;100.00;99976.06;5074125;28;20200;-65
2021/12/14 10:37:57;;;;;;;12.10;10.90;;;;;;;2.47;100.00;99982.78;5074131;28;20261;-65
2021/12/14 10:43:15;;;;;;;8.20;7.57;;;;;;;2.51;100.00;99976.09;5055421;28;20727;-68
2021/12/14 10:45:46;;;;;;;9.53;8.60;;;;;;;2.52;100.00;99971.03;5073706;28;20715;-64
2021/12/14 10:48:13;;;;;;;8.43;7.73;;;;;;;2.58;100.00;99970.25;5073297;28;20778;-65
2021/12/14 10:50:42;;;;;;;11.37;8.93;;;;;;;2.60;100.00;99971.97;5073275;28;20222;-65
2021/12/14 10:53:11;;;;;;;8.13;7.43;;;;;;;2.64;100.00;99972.84;5073330;28;20207;-65
2021/12/14 10:55:43;;;;;;;8.97;8.17;;;;;;;2.65;100.00;99969.47;5073331;28;20218;-65
2021/12/14 10:58:12;;;;;;;8.37;7.50;;;;;;;2.66;100.00;99978.78;5073218;28;20279;-65
2021/12/14 11:00:44;;;;;;;7.93;7.13;;;;;;;2.68;100.00;99966.16;5073266;28;20210;-65
2021/12/14 11:03:15;;;;;;;8.67;7.83;;;;;;;2.75;100.00;99958.59;5073153;28;20206;-64
2021/12/14 11:05:46;;;;;;;10.53;7.47;;;;;;;2.71;100.00;99956.06;5072990;28;20291;-65
2021/12/14 11:08:33;;;;;;;7.07;6.37;;;;;;;2.74;100.00;99964.53;5072896;28;20216;-65
2021/12/14 11:11:04;;;;;;;8.17;7.37;;;;;;;2.76;100.00;99962.84;5072352;28;20208;-64
2021/12/14 11:13:39;;;;;;;6.80;6.20;;;;;;;2.76;100.00;99965.38;5073343;28;20215;-64
2021/12/14 11:16:14;;;;;;;8.80;8.10;;;;;;;2.67;100.00;99944.19;5071705;28;20207;-66
2021/12/14 11:18:44;;;;;;;10.50;9.20;;;;;;;2.78;100.00;99958.63;5070626;28;20401;-66
2021/12/14 11:21:14;;;;;;;8.50;7.80;;;;;;;2.78;100.00;99961.16;5072901;28;20200;-66
2021/12/14 11:23:46;;;;;;;8.07;7.47;;;;;;;2.73;100.00;99960.28;5072658;28;20299;-66
2021/12/14 11:26:16;;;;;;;6.60;6.20;;;;;;;2.75;100.00;99953.53;5072975;28;20203;-66
2021/12/14 11:28:47;;;;;;;7.03;6.43;;;;;;;2.77;100.00;99951.91;5072931;28;20243;-66
2021/12/14 11:31:19;;;;;;;7.30;6.60;;;;;;;2.82;100.00;99956.97;5072489;28;20193;-65
2021/12/14 11:33:51;;;;;;;6.93;6.43;;;;;;;2.83;100.00;99951.94;5072809;28;20203;-66
2021/12/14 11:36:20;;;;;;;7.80;7.10;;;;;;;2.85;100.00;99952.81;5072803;28;20580;-66
2021/12/14 11:38:52;;;;;;;8.57;7.70;;;;;;;2.89;100.00;99954.53;5072193;28;20200;-67
2021/12/14 11:41:30;;;;;;;22.20;13.63;;;;;;;2.92;100.00;99957.09;5072110;28;20300;-66
2021/12/14 11:44:01;;;;;;;21.73;12.70;;;;;;;2.94;100.00;99950.34;5072259;28;20203;-67
2021/12/14 11:46:31;;;;;;;42.07;23.63;;;;;;;2.92;100.00;99954.56;5072332;28;20204;-66
2021/12/14 11:49:02;;;;;;;14.07;12.07;;;;;;;2.93;100.00;99953.75;5069775;28;20235;-67
2021/12/14 11:51:30;;;;;;;10.70;9.57;;;;;;;2.92;100.00;99951.19;5072008;28;20206;-66
2021/12/14 11:53:59;;;;;;;20.73;15.87;;;;;;;2.92;100.00;99949.50;5071696;28;20196;-66
2021/12/14 11:56:31;;;;;;;26.37;19.03;;;;;;;2.85;100.00;99937.63;5071660;28;20200;-67
2021/12/14 11:59:01;;;;;;;12.37;10.47;;;;;;;2.93;100.00;99948.69;5072088;28;20668;-66
2021/12/14 12:01:31;;;;;;;11.37;9.63;;;;;;;2.97;100.00;99945.31;5072186;28;20204;-66
2021/12/14 12:04:01;;;;;;;19.70;14.90;;;;;;;2.94;100.00;99950.34;5072227;28;20196;-65
2021/12/14 12:09:28;;;;;;;17.83;14.20;;;;;;;2.97;100.00;99939.44;5071800;28;20188;-65
2021/12/14 12:09:36;;;;;;;26.13;17.83;;;;;;;2.84;100.00;99932.56;5070571;28;20298;-65
2021/12/14 12:12:25;;;;;;;12.50;10.97;;;;;;;2.95;100.00;99947.00;5071842;28;20196;-66
2021/12/14 12:14:56;;;;;;;13.03;11.83;;;;;;;2.94;100.00;99950.34;5071387;28;20199;-66